sensor_id;sensor_type;location;lat;lon;timestamp;pressure;altitude;pressure_sealevel;temperature;humidity
28004;BME280;15330;51.234;6.754;2022-08-21T00:01:45;101295.19;;;20.19;64.57
28004;BME280;15330;51.234;6.754;2022-08-21T00:04:10;101293.50;;;20.18;64.88
28004;BME280;15330;51.234;6.754;2022-08-21T00:06:36;101286.41;;;20.17;65.06
28004;BME280;15330;51.234;6.754;2022-08-21T00:09:04;101288.06;;;20.18;65.00
28004;BME280;15330;51.234;6.754;2022-08-21T00:11:31;101287.66;;;20.21;64.86
28004;BME280;15330;51.234;6.754;2022-08-21T00:13:56;101281.81;;;20.24;64.32
28004;BME280;15330;51.234;6.754;2022-08-21T00:16:22;101273.41;;;20.26;64.13
28004;BME280;15330;51.234;6.754;2022-08-21T00:18:48;101270.53;;;20.21;64.68
28004;BME280;15330;51.234;6.754;2022-08-21T00:21:14;101270.31;;;20.22;65.16
28004;BME280;15330;51.234;6.754;2022-08-21T00:23:40;101270.94;;;20.24;64.59
28004;BME280;15330;51.234;6.754;2022-08-21T00:26:06;101259.81;;;20.26;64.52
28004;BME280;15330;51.234;6.754;2022-08-21T00:28:32;101244.19;;;20.21;64.56
28004;BME280;15330;51.234;6.754;2022-08-21T00:30:58;101254.63;;;20.24;64.37
28004;BME280;15330;51.234;6.754;2022-08-21T00:33:24;101246.91;;;20.21;64.19
28004;BME280;15330;51.234;6.754;2022-08-21T00:35:50;101249.03;;;20.12;64.72
28004;BME280;15330;51.234;6.754;2022-08-21T00:38:15;101256.34;;;20.05;64.69
28004;BME280;15330;51.234;6.754;2022-08-21T00:40:47;101260.78;;;20.00;65.36
28004;BME280;15330;51.234;6.754;2022-08-21T00:43:16;101253.84;;;20.10;65.05
28004;BME280;15330;51.234;6.754;2022-08-21T00:45:44;101262.41;;;20.14;64.79
28004;BME280;15330;51.234;6.754;2022-08-21T00:48:10;101253.84;;;20.10;64.88
28004;BME280;15330;51.234;6.754;2022-08-21T00:50:38;101253.22;;;20.08;64.38
28004;BME280;15330;51.234;6.754;2022-08-21T00:53:06;101258.50;;;19.90;64.67
28004;BME280;15330;51.234;6.754;2022-08-21T00:55:33;101251.25;;;19.71;65.49
28004;BME280;15330;51.234;6.754;2022-08-21T00:58:03;101251.22;;;19.91;65.25
28004;BME280;15330;51.234;6.754;2022-08-21T01:00:31;101248.91;;;19.88;65.60
28004;BME280;15330;51.234;6.754;2022-08-21T01:02:59;101246.59;;;19.85;65.85
28004;BME280;15330;51.234;6.754;2022-08-21T01:05:26;101253.72;;;19.86;65.98
28004;BME280;15330;51.234;6.754;2022-08-21T01:07:52;101253.28;;;19.89;65.87
28004;BME280;15330;51.234;6.754;2022-08-21T01:10:19;101257.25;;;19.86;66.07
28004;BME280;15330;51.234;6.754;2022-08-21T01:12:44;101251.44;;;19.83;66.41
28004;BME280;15330;51.234;6.754;2022-08-21T01:15:12;101251.25;;;19.64;66.84
28004;BME280;15330;51.234;6.754;2022-08-21T01:17:40;101252.75;;;19.54;66.76
28004;BME280;15330;51.234;6.754;2022-08-21T01:20:08;101261.91;;;19.33;67.91
28004;BME280;15330;51.234;6.754;2022-08-21T01:22:35;101263.59;;;19.27;67.73
28004;BME280;15330;51.234;6.754;2022-08-21T01:25:02;101261.72;;;19.34;67.76
28004;BME280;15330;51.234;6.754;2022-08-21T01:27:27;101266.72;;;19.18;67.63
28004;BME280;15330;51.234;6.754;2022-08-21T01:29:58;101266.94;;;19.10;68.30
28004;BME280;15330;51.234;6.754;2022-08-21T01:32:25;101259.63;;;19.17;68.12
28004;BME280;15330;51.234;6.754;2022-08-21T01:34:51;101270.06;;;19.20;68.03
28004;BME280;15330;51.234;6.754;2022-08-21T01:37:18;101272.72;;;18.80;69.08
28004;BME280;15330;51.234;6.754;2022-08-21T01:39:45;101272.94;;;18.92;68.72
28004;BME280;15330;51.234;6.754;2022-08-21T01:42:11;101265.69;;;18.99;68.60
28004;BME280;15330;51.234;6.754;2022-08-21T01:44:37;101274.84;;;18.78;69.20
28004;BME280;15330;51.234;6.754;2022-08-21T01:47:05;101268.06;;;18.54;70.48
28004;BME280;15330;51.234;6.754;2022-08-21T01:49:33;101264.25;;;18.36;71.04
28004;BME280;15330;51.234;6.754;2022-08-21T01:51:59;101258.16;;;18.88;69.27
28004;BME280;15330;51.234;6.754;2022-08-21T01:54:24;101257.47;;;18.59;70.29
28004;BME280;15330;51.234;6.754;2022-08-21T01:56:52;101260.41;;;18.58;70.93
28004;BME280;15330;51.234;6.754;2022-08-21T01:59:19;101249.28;;;18.53;70.63
28004;BME280;15330;51.234;6.754;2022-08-21T02:01:44;101260.22;;;18.79;69.54
28004;BME280;15330;51.234;6.754;2022-08-21T02:04:10;101254.97;;;18.58;70.26
28004;BME280;15330;51.234;6.754;2022-08-21T02:06:36;101255.81;;;18.65;70.49
28004;BME280;15330;51.234;6.754;2022-08-21T02:09:04;101264.19;;;18.77;70.25
28004;BME280;15330;51.234;6.754;2022-08-21T02:11:30;101255.13;;;18.50;71.38
28004;BME280;15330;51.234;6.754;2022-08-21T02:13:56;101255.34;;;18.55;71.37
28004;BME280;15330;51.234;6.754;2022-08-21T02:16:21;101252.03;;;18.59;71.00
28004;BME280;15330;51.234;6.754;2022-08-21T02:18:47;101250.97;;;18.54;70.96
28004;BME280;15330;51.234;6.754;2022-08-21T02:21:12;101238.47;;;18.53;71.20
28004;BME280;15330;51.234;6.754;2022-08-21T02:23:38;101243.88;;;18.46;71.63
28004;BME280;15330;51.234;6.754;2022-08-21T02:26:06;101255.75;;;18.45;71.65
28004;BME280;15330;51.234;6.754;2022-08-21T02:28:32;101259.41;;;18.24;72.80
28004;BME280;15330;51.234;6.754;2022-08-21T02:30:57;101254.28;;;18.43;72.08
28004;BME280;15330;51.234;6.754;2022-08-21T02:33:24;101249.69;;;18.37;72.42
28004;BME280;15330;51.234;6.754;2022-08-21T02:35:50;101243.94;;;18.05;73.28
28004;BME280;15330;51.234;6.754;2022-08-21T02:38:19;101242.09;;;18.19;72.75
28004;BME280;15330;51.234;6.754;2022-08-21T02:40:47;101244.47;;;18.35;71.69
28004;BME280;15330;51.234;6.754;2022-08-21T02:43:13;101243.19;;;18.31;72.09
28004;BME280;15330;51.234;6.754;2022-08-21T02:45:43;101251.28;;;18.24;71.90
28004;BME280;15330;51.234;6.754;2022-08-21T02:48:12;101240.41;;;18.18;72.20
28004;BME280;15330;51.234;6.754;2022-08-21T02:50:46;101247.47;;;18.06;72.28
28004;BME280;15330;51.234;6.754;2022-08-21T02:53:13;101251.38;;;17.62;73.65
28004;BME280;15330;51.234;6.754;2022-08-21T02:55:42;101243.63;;;17.87;72.91
28004;BME280;15330;51.234;6.754;2022-08-21T02:58:08;101244.66;;;17.86;73.02
28004;BME280;15330;51.234;6.754;2022-08-21T03:00:35;101251.31;;;17.83;73.52
28004;BME280;15330;51.234;6.754;2022-08-21T03:03:01;101245.53;;;17.93;73.02
28004;BME280;15330;51.234;6.754;2022-08-21T03:05:28;101242.31;;;17.76;73.54
28004;BME280;15330;51.234;6.754;2022-08-21T03:07:57;101249.03;;;17.87;72.67
28004;BME280;15330;51.234;6.754;2022-08-21T03:10:23;101243.16;;;17.49;74.22
28004;BME280;15330;51.234;6.754;2022-08-21T03:12:50;101236.47;;;17.73;73.55
28004;BME280;15330;51.234;6.754;2022-08-21T03:15:18;101233.13;;;17.71;73.05
28004;BME280;15330;51.234;6.754;2022-08-21T03:17:45;101234.41;;;17.75;73.01
28004;BME280;15330;51.234;6.754;2022-08-21T03:20:11;101226.19;;;17.96;72.13
28004;BME280;15330;51.234;6.754;2022-08-21T03:22:37;101230.09;;;17.87;72.54
28004;BME280;15330;51.234;6.754;2022-08-21T03:25:03;101236.06;;;17.76;73.31
28004;BME280;15330;51.234;6.754;2022-08-21T03:27:29;101233.53;;;17.68;73.79
28004;BME280;15330;51.234;6.754;2022-08-21T03:29:56;101239.03;;;17.87;73.13
28004;BME280;15330;51.234;6.754;2022-08-21T03:32:22;101242.66;;;17.67;73.82
28004;BME280;15330;51.234;6.754;2022-08-21T03:34:47;101223.19;;;17.50;74.53
28004;BME280;15330;51.234;6.754;2022-08-21T03:37:14;101234.34;;;17.34;74.75
28004;BME280;15330;51.234;6.754;2022-08-21T03:39:40;101233.63;;;17.25;75.04
28004;BME280;15330;51.234;6.754;2022-08-21T03:42:07;101243.75;;;17.44;74.48
28004;BME280;15330;51.234;6.754;2022-08-21T03:44:32;101239.50;;;17.35;75.16
28004;BME280;15330;51.234;6.754;2022-08-21T03:46:59;101237.50;;;17.16;76.21
28004;BME280;15330;51.234;6.754;2022-08-21T03:49:25;101238.56;;;17.43;75.42
28004;BME280;15330;51.234;6.754;2022-08-21T03:51:50;101238.63;;;17.00;77.25
28004;BME280;15330;51.234;6.754;2022-08-21T03:54:16;101240.13;;;17.31;75.97
28004;BME280;15330;51.234;6.754;2022-08-21T03:56:42;101241.84;;;17.10;76.59
28004;BME280;15330;51.234;6.754;2022-08-21T03:59:07;101252.19;;;17.07;77.46
28004;BME280;15330;51.234;6.754;2022-08-21T04:01:33;101243.31;;;17.13;77.35
28004;BME280;15330;51.234;6.754;2022-08-21T04:03:58;101249.59;;;17.20;76.87
28004;BME280;15330;51.234;6.754;2022-08-21T04:06:24;101264.31;;;17.39;76.42
28004;BME280;15330;51.234;6.754;2022-08-21T04:08:51;101257.78;;;17.54;75.65
28004;BME280;15330;51.234;6.754;2022-08-21T04:11:16;101259.97;;;17.44;75.62
28004;BME280;15330;51.234;6.754;2022-08-21T04:13:41;101263.28;;;17.68;75.14
28004;BME280;15330;51.234;6.754;2022-08-21T04:16:07;101266.28;;;17.51;75.10
28004;BME280;15330;51.234;6.754;2022-08-21T04:18:34;101270.69;;;17.59;74.41
28004;BME280;15330;51.234;6.754;2022-08-21T04:21:01;101269.88;;;17.31;75.47
28004;BME280;15330;51.234;6.754;2022-08-21T04:23:27;101272.31;;;17.25;75.91
28004;BME280;15330;51.234;6.754;2022-08-21T04:25:54;101272.06;;;17.48;75.21
28004;BME280;15330;51.234;6.754;2022-08-21T04:28:21;101267.94;;;17.24;76.19
28004;BME280;15330;51.234;6.754;2022-08-21T04:30:47;101274.69;;;17.14;76.66
28004;BME280;15330;51.234;6.754;2022-08-21T04:33:13;101275.28;;;17.31;75.97
28004;BME280;15330;51.234;6.754;2022-08-21T04:35:38;101273.75;;;17.21;76.02
28004;BME280;15330;51.234;6.754;2022-08-21T04:38:04;101265.19;;;16.75;78.03
28004;BME280;15330;51.234;6.754;2022-08-21T04:40:29;101264.22;;;17.04;76.65
28004;BME280;15330;51.234;6.754;2022-08-21T04:43:08;101258.09;;;17.17;76.42
28004;BME280;15330;51.234;6.754;2022-08-21T04:45:44;101267.66;;;16.70;78.12
28004;BME280;15330;51.234;6.754;2022-08-21T04:48:11;101282.09;;;17.27;75.92
28004;BME280;15330;51.234;6.754;2022-08-21T04:53:41;101269.56;;;17.47;75.42
28004;BME280;15330;51.234;6.754;2022-08-21T04:56:11;101270.38;;;16.92;77.09
28004;BME280;15330;51.234;6.754;2022-08-21T04:58:38;101273.59;;;16.80;77.64
28004;BME280;15330;51.234;6.754;2022-08-21T05:01:06;101268.94;;;16.96;77.07
28004;BME280;15330;51.234;6.754;2022-08-21T05:03:32;101275.81;;;16.98;76.79
28004;BME280;15330;51.234;6.754;2022-08-21T05:06:00;101277.25;;;16.58;77.80
28004;BME280;15330;51.234;6.754;2022-08-21T05:08:27;101271.81;;;16.73;77.49
28004;BME280;15330;51.234;6.754;2022-08-21T05:10:53;101276.78;;;16.91;76.93
28004;BME280;15330;51.234;6.754;2022-08-21T05:13:19;101278.34;;;17.00;76.71
28004;BME280;15330;51.234;6.754;2022-08-21T05:15:45;101284.13;;;16.97;76.42
28004;BME280;15330;51.234;6.754;2022-08-21T05:18:11;101276.50;;;17.28;75.49
28004;BME280;15330;51.234;6.754;2022-08-21T05:20:36;101281.91;;;17.56;74.11
28004;BME280;15330;51.234;6.754;2022-08-21T05:23:07;101291.00;;;17.48;73.98
28004;BME280;15330;51.234;6.754;2022-08-21T05:25:33;101294.59;;;17.55;73.94
28004;BME280;15330;51.234;6.754;2022-08-21T05:27:59;101289.59;;;17.52;73.54
28004;BME280;15330;51.234;6.754;2022-08-21T05:30:24;101292.97;;;17.61;73.30
28004;BME280;15330;51.234;6.754;2022-08-21T05:32:58;101297.81;;;17.16;74.33
28004;BME280;15330;51.234;6.754;2022-08-21T05:35:24;101292.31;;;17.52;72.37
28004;BME280;15330;51.234;6.754;2022-08-21T05:37:49;101296.38;;;17.42;72.47
28004;BME280;15330;51.234;6.754;2022-08-21T05:40:15;101297.34;;;17.34;71.96
28004;BME280;15330;51.234;6.754;2022-08-21T05:42:40;101295.59;;;17.48;71.27
28004;BME280;15330;51.234;6.754;2022-08-21T05:45:06;101301.44;;;17.51;71.27
28004;BME280;15330;51.234;6.754;2022-08-21T05:47:31;101294.22;;;17.09;71.60
28004;BME280;15330;51.234;6.754;2022-08-21T05:49:57;101293.00;;;17.33;71.03
28004;BME280;15330;51.234;6.754;2022-08-21T05:52:23;101279.66;;;17.59;69.75
28004;BME280;15330;51.234;6.754;2022-08-21T05:54:49;101303.69;;;17.48;69.90
28004;BME280;15330;51.234;6.754;2022-08-21T05:57:14;101291.94;;;17.90;68.64
28004;BME280;15330;51.234;6.754;2022-08-21T05:59:39;101288.56;;;18.16;67.65
28004;BME280;15330;51.234;6.754;2022-08-21T06:02:05;101295.28;;;18.33;67.03
28004;BME280;15330;51.234;6.754;2022-08-21T06:04:38;101299.03;;;18.39;66.76
28004;BME280;15330;51.234;6.754;2022-08-21T06:07:04;101294.66;;;18.38;66.72
28004;BME280;15330;51.234;6.754;2022-08-21T06:09:30;101284.31;;;18.48;65.24
28004;BME280;15330;51.234;6.754;2022-08-21T06:11:55;101292.19;;;18.43;65.15
28004;BME280;15330;51.234;6.754;2022-08-21T06:14:20;101289.81;;;18.81;64.07
28004;BME280;15330;51.234;6.754;2022-08-21T06:16:46;101290.94;;;19.19;63.64
28004;BME280;15330;51.234;6.754;2022-08-21T06:19:12;101290.06;;;18.86;63.57
28004;BME280;15330;51.234;6.754;2022-08-21T06:21:37;101298.63;;;18.96;63.86
28004;BME280;15330;51.234;6.754;2022-08-21T06:24:04;101295.94;;;19.82;61.80
28004;BME280;15330;51.234;6.754;2022-08-21T06:26:30;101287.94;;;20.00;61.30
28004;BME280;15330;51.234;6.754;2022-08-21T06:28:56;101297.38;;;19.44;61.02
28004;BME280;15330;51.234;6.754;2022-08-21T06:31:23;101286.63;;;21.30;58.29
28004;BME280;15330;51.234;6.754;2022-08-21T06:33:49;101290.94;;;20.81;57.94
28004;BME280;15330;51.234;6.754;2022-08-21T06:36:15;101290.63;;;20.64;57.83
28004;BME280;15330;51.234;6.754;2022-08-21T06:38:41;101295.72;;;21.17;56.17
28004;BME280;15330;51.234;6.754;2022-08-21T06:41:07;101301.78;;;19.78;59.31
28004;BME280;15330;51.234;6.754;2022-08-21T06:43:33;101296.75;;;21.90;56.46
28004;BME280;15330;51.234;6.754;2022-08-21T06:45:58;101288.28;;;21.55;55.69
28004;BME280;15330;51.234;6.754;2022-08-21T06:48:24;101302.75;;;20.04;57.07
28004;BME280;15330;51.234;6.754;2022-08-21T06:50:49;101282.69;;;22.12;52.88
28004;BME280;15330;51.234;6.754;2022-08-21T06:53:19;101282.47;;;21.70;52.61
28004;BME280;15330;51.234;6.754;2022-08-21T06:55:45;101292.50;;;21.51;53.43
28004;BME280;15330;51.234;6.754;2022-08-21T06:58:11;101287.94;;;22.61;51.17
28004;BME280;15330;51.234;6.754;2022-08-21T07:00:43;101287.78;;;21.83;53.12
28004;BME280;15330;51.234;6.754;2022-08-21T07:03:23;101286.41;;;22.84;50.36
28004;BME280;15330;51.234;6.754;2022-08-21T07:05:49;101287.94;;;22.43;52.14
28004;BME280;15330;51.234;6.754;2022-08-21T07:08:15;101283.03;;;22.52;51.35
28004;BME280;15330;51.234;6.754;2022-08-21T07:10:41;101293.75;;;21.74;52.95
28004;BME280;15330;51.234;6.754;2022-08-21T07:13:07;101286.03;;;22.62;49.83
28004;BME280;15330;51.234;6.754;2022-08-21T07:15:32;101284.34;;;22.13;52.28
28004;BME280;15330;51.234;6.754;2022-08-21T07:17:58;101279.53;;;22.93;50.21
28004;BME280;15330;51.234;6.754;2022-08-21T07:20:26;101285.25;;;23.03;48.98
28004;BME280;15330;51.234;6.754;2022-08-21T07:22:51;101276.84;;;23.28;48.17
28004;BME280;15330;51.234;6.754;2022-08-21T07:25:17;101278.97;;;21.88;50.14
28004;BME280;15330;51.234;6.754;2022-08-21T07:27:42;101288.09;;;23.08;49.32
28004;BME280;15330;51.234;6.754;2022-08-21T07:30:08;101288.41;;;23.88;49.25
28004;BME280;15330;51.234;6.754;2022-08-21T07:32:34;101286.22;;;23.20;47.99
28004;BME280;15330;51.234;6.754;2022-08-21T07:34:59;101289.59;;;23.92;48.18
28004;BME280;15330;51.234;6.754;2022-08-21T07:37:24;101286.22;;;23.20;47.92
28004;BME280;15330;51.234;6.754;2022-08-21T07:39:50;101292.91;;;24.06;46.82
28004;BME280;15330;51.234;6.754;2022-08-21T07:42:16;101288.53;;;24.73;44.33
28004;BME280;15330;51.234;6.754;2022-08-21T07:44:42;101283.75;;;26.19;41.56
28004;BME280;15330;51.234;6.754;2022-08-21T07:47:08;101282.81;;;25.37;44.33
28004;BME280;15330;51.234;6.754;2022-08-21T07:49:33;101293.28;;;23.86;45.45
28004;BME280;15330;51.234;6.754;2022-08-21T07:51:58;101298.63;;;23.69;45.48
28004;BME280;15330;51.234;6.754;2022-08-21T07:54:24;101292.88;;;24.18;45.13
28004;BME280;15330;51.234;6.754;2022-08-21T07:56:50;101268.38;;;25.58;43.72
28004;BME280;15330;51.234;6.754;2022-08-21T07:59:15;101275.84;;;24.39;42.54
28004;BME280;15330;51.234;6.754;2022-08-21T08:01:41;101268.22;;;26.03;42.50
28004;BME280;15330;51.234;6.754;2022-08-21T08:04:06;101279.25;;;23.36;45.65
28004;BME280;15330;51.234;6.754;2022-08-21T08:06:32;101275.06;;;24.27;44.23
28004;BME280;15330;51.234;6.754;2022-08-21T08:08:57;101278.81;;;23.74;44.60
28004;BME280;15330;51.234;6.754;2022-08-21T08:11:23;101265.59;;;23.36;45.46
28004;BME280;15330;51.234;6.754;2022-08-21T08:13:50;101260.00;;;23.19;46.05
28004;BME280;15330;51.234;6.754;2022-08-21T08:16:17;101263.13;;;24.21;45.53
28004;BME280;15330;51.234;6.754;2022-08-21T08:18:44;101268.81;;;23.45;44.93
28004;BME280;15330;51.234;6.754;2022-08-21T08:21:10;101263.03;;;23.64;44.68
28004;BME280;15330;51.234;6.754;2022-08-21T08:23:37;101261.78;;;23.49;45.27
28004;BME280;15330;51.234;6.754;2022-08-21T08:26:03;101259.13;;;24.12;43.87
28004;BME280;15330;51.234;6.754;2022-08-21T08:28:29;101252.78;;;24.92;42.85
28004;BME280;15330;51.234;6.754;2022-08-21T08:30:55;101265.59;;;26.57;41.35
28004;BME280;15330;51.234;6.754;2022-08-21T08:33:21;101261.44;;;24.43;42.61
28004;BME280;15330;51.234;6.754;2022-08-21T08:35:48;101268.97;;;25.27;41.94
28004;BME280;15330;51.234;6.754;2022-08-21T08:38:15;101267.91;;;25.28;41.87
28004;BME280;15330;51.234;6.754;2022-08-21T08:43:16;101267.38;;;25.47;40.88
28004;BME280;15330;51.234;6.754;2022-08-21T08:45:46;101258.44;;;25.02;41.02
28004;BME280;15330;51.234;6.754;2022-08-21T08:48:14;101257.66;;;25.73;41.13
28004;BME280;15330;51.234;6.754;2022-08-21T08:50:52;101251.84;;;26.84;39.22
28004;BME280;15330;51.234;6.754;2022-08-21T08:53:28;101251.34;;;26.87;37.88
28004;BME280;15330;51.234;6.754;2022-08-21T08:55:55;101258.13;;;26.52;38.63
28004;BME280;15330;51.234;6.754;2022-08-21T08:58:36;101253.28;;;26.38;38.33
28004;BME280;15330;51.234;6.754;2022-08-21T09:01:05;101258.50;;;25.23;40.45
28004;BME280;15330;51.234;6.754;2022-08-21T09:03:31;101243.44;;;25.21;40.35
28004;BME280;15330;51.234;6.754;2022-08-21T09:06:40;101252.13;;;24.28;41.75
28004;BME280;15330;51.234;6.754;2022-08-21T09:25:27;101237.34;;;25.91;39.99
28004;BME280;15330;51.234;6.754;2022-08-21T09:27:56;101238.25;;;26.94;38.20
28004;BME280;15330;51.234;6.754;2022-08-21T09:30:30;101235.19;;;25.04;41.07
28004;BME280;15330;51.234;6.754;2022-08-21T09:32:57;101230.72;;;26.30;39.03
28004;BME280;15330;51.234;6.754;2022-08-21T09:35:24;101230.50;;;27.23;37.55
28004;BME280;15330;51.234;6.754;2022-08-21T09:38:04;101235.31;;;26.25;39.87
28004;BME280;15330;51.234;6.754;2022-08-21T09:40:40;101233.16;;;26.05;39.75
28004;BME280;15330;51.234;6.754;2022-08-21T09:43:19;101238.50;;;26.92;38.72
28004;BME280;15330;51.234;6.754;2022-08-21T09:45:46;101247.41;;;26.51;38.82
28004;BME280;15330;51.234;6.754;2022-08-21T09:48:23;101235.03;;;25.61;39.30
28004;BME280;15330;51.234;6.754;2022-08-21T09:50:50;101232.81;;;27.78;38.28
28004;BME280;15330;51.234;6.754;2022-08-21T09:58:36;101232.97;;;24.73;40.40
28004;BME280;15330;51.234;6.754;2022-08-21T10:01:04;101226.91;;;25.16;39.76
28004;BME280;15330;51.234;6.754;2022-08-21T10:03:30;101207.34;;;24.62;40.68
28004;BME280;15330;51.234;6.754;2022-08-21T10:08:31;101220.78;;;25.81;38.72
28004;BME280;15330;51.234;6.754;2022-08-21T10:11:07;101213.44;;;25.86;39.35
28004;BME280;15330;51.234;6.754;2022-08-21T10:16:49;101210.50;;;25.93;39.54
28004;BME280;15330;51.234;6.754;2022-08-21T10:19:30;101204.94;;;26.58;37.94
28004;BME280;15330;51.234;6.754;2022-08-21T10:25:17;101214.84;;;26.33;37.54
28004;BME280;15330;51.234;6.754;2022-08-21T10:28:00;101204.88;;;27.07;37.97
28004;BME280;15330;51.234;6.754;2022-08-21T10:30:59;101195.31;;;26.07;38.11
28004;BME280;15330;51.234;6.754;2022-08-21T10:33:32;101204.88;;;26.26;38.21
28004;BME280;15330;51.234;6.754;2022-08-21T10:47:04;101199.34;;;25.78;38.20
28004;BME280;15330;51.234;6.754;2022-08-21T10:49:39;101195.41;;;25.52;39.01
28004;BME280;15330;51.234;6.754;2022-08-21T10:55:18;101187.97;;;27.25;36.57
28004;BME280;15330;51.234;6.754;2022-08-21T10:57:54;101186.81;;;27.63;35.59
28004;BME280;15330;51.234;6.754;2022-08-21T11:00:29;101188.09;;;27.98;35.64
28004;BME280;15330;51.234;6.754;2022-08-21T11:03:06;101200.78;;;27.15;36.13
28004;BME280;15330;51.234;6.754;2022-08-21T11:05:58;101195.03;;;27.16;36.50
28004;BME280;15330;51.234;6.754;2022-08-21T11:08:29;101194.06;;;27.85;35.99
28004;BME280;15330;51.234;6.754;2022-08-21T11:11:01;101202.22;;;28.22;35.06
28004;BME280;15330;51.234;6.754;2022-08-21T11:18:53;101205.03;;;26.37;37.14
28004;BME280;15330;51.234;6.754;2022-08-21T11:23:54;101195.38;;;26.34;36.78
28004;BME280;15330;51.234;6.754;2022-08-21T11:26:37;101188.84;;;26.67;37.31
28004;BME280;15330;51.234;6.754;2022-08-21T11:31:58;101187.66;;;26.31;37.14
28004;BME280;15330;51.234;6.754;2022-08-21T11:34:41;101181.22;;;26.20;37.39
28004;BME280;15330;51.234;6.754;2022-08-21T11:37:22;101190.75;;;25.91;37.68
28004;BME280;15330;51.234;6.754;2022-08-21T11:42:48;101181.47;;;27.94;35.37
28004;BME280;15330;51.234;6.754;2022-08-21T11:50:57;101187.03;;;26.24;38.15
28004;BME280;15330;51.234;6.754;2022-08-21T11:53:33;101181.50;;;27.04;36.43
28004;BME280;15330;51.234;6.754;2022-08-21T11:56:12;101181.25;;;27.06;36.40
28004;BME280;15330;51.234;6.754;2022-08-21T11:58:48;101187.53;;;25.99;38.15
28004;BME280;15330;51.234;6.754;2022-08-21T12:01:21;101181.53;;;25.58;39.10
28004;BME280;15330;51.234;6.754;2022-08-21T12:04:28;101170.59;;;26.83;37.13
28004;BME280;15330;51.234;6.754;2022-08-21T12:06:45;101165.75;;;26.63;37.43
28004;BME280;15330;51.234;6.754;2022-08-21T12:09:30;101172.25;;;27.21;36.27
28004;BME280;15330;51.234;6.754;2022-08-21T12:12:44;101170.34;;;26.89;37.15
28004;BME280;15330;51.234;6.754;2022-08-21T12:18:06;101173.13;;;27.68;36.45
28004;BME280;15330;51.234;6.754;2022-08-21T12:28:23;101157.75;;;27.77;34.84
28004;BME280;15330;51.234;6.754;2022-08-21T12:30:49;101163.09;;;27.52;35.37
28004;BME280;15330;51.234;6.754;2022-08-21T12:33:33;101155.59;;;27.90;35.26
28004;BME280;15330;51.234;6.754;2022-08-21T12:36:11;101160.78;;;26.60;36.41
28004;BME280;15330;51.234;6.754;2022-08-21T12:38:54;101155.41;;;28.11;35.40
28004;BME280;15330;51.234;6.754;2022-08-21T12:41:34;101158.25;;;26.85;36.31
28004;BME280;15330;51.234;6.754;2022-08-21T12:44:33;101155.28;;;27.76;35.93
28004;BME280;15330;51.234;6.754;2022-08-21T12:47:05;101160.69;;;26.50;36.48
28004;BME280;15330;51.234;6.754;2022-08-21T12:49:45;101166.88;;;26.94;36.15
28004;BME280;15330;51.234;6.754;2022-08-21T12:54:47;101153.72;;;27.01;36.35
28004;BME280;15330;51.234;6.754;2022-08-21T12:57:23;101158.00;;;26.55;37.81
28004;BME280;15330;51.234;6.754;2022-08-21T12:59:58;101150.94;;;26.64;38.00
28004;BME280;15330;51.234;6.754;2022-08-21T13:02:27;101153.28;;;26.82;36.73
28004;BME280;15330;51.234;6.754;2022-08-21T13:04:54;101150.84;;;27.23;36.05
28004;BME280;15330;51.234;6.754;2022-08-21T13:07:29;101155.19;;;27.14;35.99
28004;BME280;15330;51.234;6.754;2022-08-21T13:10:05;101157.03;;;27.45;35.36
28004;BME280;15330;51.234;6.754;2022-08-21T13:12:32;101150.84;;;27.23;34.98
28004;BME280;15330;51.234;6.754;2022-08-21T13:15:03;101153.97;;;27.89;35.14
28004;BME280;15330;51.234;6.754;2022-08-21T13:17:32;101146.03;;;27.45;34.67
28004;BME280;15330;51.234;6.754;2022-08-21T13:20:09;101141.88;;;27.42;35.39
28004;BME280;15330;51.234;6.754;2022-08-21T13:22:46;101144.63;;;27.90;34.59
28004;BME280;15330;51.234;6.754;2022-08-21T13:25:13;101149.34;;;27.47;35.42
28004;BME280;15330;51.234;6.754;2022-08-21T13:27:43;101146.75;;;27.77;35.67
28004;BME280;15330;51.234;6.754;2022-08-21T13:32:41;101142.31;;;26.82;37.26
28004;BME280;15330;51.234;6.754;2022-08-21T13:35:09;101140.97;;;26.53;37.33
28004;BME280;15330;51.234;6.754;2022-08-21T13:37:35;101137.63;;;26.83;37.34
28004;BME280;15330;51.234;6.754;2022-08-21T13:40:07;101139.41;;;27.41;36.48
28004;BME280;15330;51.234;6.754;2022-08-21T13:42:33;101136.16;;;26.38;36.98
28004;BME280;15330;51.234;6.754;2022-08-21T13:44:58;101133.84;;;27.26;36.53
28004;BME280;15330;51.234;6.754;2022-08-21T13:47:24;101135.00;;;27.92;35.93
28004;BME280;15330;51.234;6.754;2022-08-21T13:49:51;101143.84;;;27.47;35.75
28004;BME280;15330;51.234;6.754;2022-08-21T13:52:23;101138.22;;;26.90;36.50
28004;BME280;15330;51.234;6.754;2022-08-21T13:55:12;101131.34;;;26.50;36.75
28004;BME280;15330;51.234;6.754;2022-08-21T13:57:38;101126.41;;;26.89;36.68
28004;BME280;15330;51.234;6.754;2022-08-21T14:00:15;101120.69;;;26.59;35.84
28004;BME280;15330;51.234;6.754;2022-08-21T14:02:45;101119.72;;;27.07;35.56
28004;BME280;15330;51.234;6.754;2022-08-21T14:05:20;101126.69;;;27.25;35.61
28004;BME280;15330;51.234;6.754;2022-08-21T14:07:46;101127.78;;;27.19;35.53
28004;BME280;15330;51.234;6.754;2022-08-21T14:10:18;101119.03;;;27.27;36.51
28004;BME280;15330;51.234;6.754;2022-08-21T14:12:54;101118.88;;;26.69;35.65
28004;BME280;15330;51.234;6.754;2022-08-21T14:15:25;101125.06;;;26.55;35.97
28004;BME280;15330;51.234;6.754;2022-08-21T14:17:51;101122.53;;;26.80;36.22
28004;BME280;15330;51.234;6.754;2022-08-21T14:20:32;101125.69;;;26.62;36.97
28004;BME280;15330;51.234;6.754;2022-08-21T14:22:58;101127.16;;;26.16;36.61
28004;BME280;15330;51.234;6.754;2022-08-21T14:30:20;101111.94;;;26.30;36.80